createdAt,value
2022-10-11T04:15:51.441Z,100.00
2022-10-11T04:18:30.756Z,100.00
2022-10-11T04:21:10.922Z,100.00
2022-10-11T04:23:49.229Z,100.00
2022-10-11T04:26:27.164Z,100.00
2022-10-11T04:29:05.536Z,100.00
2022-10-11T04:31:43.014Z,100.00
2022-10-11T04:34:22.217Z,100.00
2022-10-11T04:37:00.949Z,100.00
2022-10-11T04:39:39.593Z,100.00
2022-10-11T04:42:17.804Z,100.00
2022-10-11T04:44:55.531Z,100.00
2022-10-11T04:47:33.832Z,100.00
2022-10-11T04:50:12.443Z,100.00
2022-10-11T04:52:50.511Z,100.00
2022-10-11T04:55:29.228Z,100.00
2022-10-11T04:58:06.698Z,100.00
2022-10-11T05:00:45.138Z,100.00
2022-10-11T05:03:25.498Z,100.00
2022-10-11T05:06:05.856Z,100.00
2022-10-11T05:08:46.149Z,100.00
2022-10-11T05:11:24.403Z,100.00
2022-10-11T05:14:02.403Z,100.00
2022-10-11T05:16:40.411Z,100.00
2022-10-11T05:19:19.723Z,100.00
2022-10-11T05:21:57.362Z,100.00
2022-10-11T05:24:35.509Z,100.00
2022-10-11T05:27:13.712Z,100.00
2022-10-11T05:29:52.228Z,100.00
2022-10-11T05:32:28.345Z,100.00
2022-10-11T05:35:06.948Z,100.00
2022-10-11T05:37:44.902Z,100.00
2022-10-11T05:40:21.292Z,100.00
2022-10-11T05:43:00.068Z,100.00
2022-10-11T05:45:40.032Z,100.00
2022-10-11T05:48:17.647Z,100.00
2022-10-11T05:51:14.331Z,100.00
2022-10-11T05:53:53.164Z,100.00
2022-10-11T05:56:31.555Z,100.00
2022-10-11T05:59:09.518Z,100.00
2022-10-11T06:01:48.739Z,100.00
2022-10-11T06:04:27.270Z,100.00
2022-10-11T06:07:06.804Z,100.00
2022-10-11T06:09:46.195Z,100.00
2022-10-11T06:12:23.428Z,100.00
2022-10-11T06:15:28.027Z,100.00
2022-10-11T06:18:25.604Z,100.00
2022-10-11T06:21:30.035Z,100.00
2022-10-11T06:24:25.964Z,100.00
2022-10-11T06:27:20.597Z,100.00
2022-10-11T06:30:15.967Z,100.00
2022-10-11T06:33:11.918Z,100.00
2022-10-11T06:36:15.046Z,100.00
2022-10-11T06:39:11.100Z,100.00
2022-10-11T06:42:06.772Z,100.00
2022-10-11T06:44:59.088Z,100.00
2022-10-11T06:47:55.520Z,100.00
2022-10-11T06:51:00.053Z,100.00
2022-10-11T06:53:55.893Z,100.00
2022-10-11T06:56:51.121Z,100.00
2022-10-11T06:59:58.300Z,100.00
2022-10-11T07:02:50.373Z,100.00
2022-10-11T07:05:46.123Z,100.00
2022-10-11T07:08:42.054Z,100.00
2022-10-11T07:11:38.820Z,100.00
2022-10-11T07:14:59.847Z,100.00
2022-10-11T07:17:36.828Z,100.00
2022-10-11T07:20:28.913Z,100.00
2022-10-11T07:23:06.887Z,100.00
2022-10-11T07:26:15.283Z,100.00
2022-10-11T07:29:12.638Z,100.00
2022-10-11T07:32:04.525Z,100.00
2022-10-11T07:34:56.517Z,100.00
2022-10-11T07:37:48.820Z,100.00
2022-10-11T07:40:43.184Z,100.00
2022-10-11T07:43:36.817Z,100.00
2022-10-11T07:46:34.141Z,100.00
2022-10-11T07:49:26.213Z,100.00
2022-10-11T07:52:22.490Z,100.00
2022-10-11T07:55:15.287Z,100.00
2022-10-11T07:58:10.678Z,100.00
2022-10-11T08:01:02.526Z,100.00
2022-10-11T08:04:06.521Z,100.00
2022-10-11T08:06:58.852Z,100.00
2022-10-11T08:09:52.841Z,100.00
2022-10-11T08:12:47.602Z,100.00
2022-10-11T08:15:45.512Z,100.00
2022-10-11T08:18:43.466Z,100.00
2022-10-11T08:21:38.971Z,100.00
2022-10-11T08:24:38.335Z,100.00
2022-10-11T08:27:32.387Z,100.00
2022-10-11T08:30:29.641Z,100.00
2022-10-11T08:33:25.751Z,100.00
2022-10-11T08:36:29.208Z,100.00
2022-10-11T08:39:24.848Z,100.00
2022-10-11T08:42:34.897Z,100.00
2022-10-11T08:45:19.475Z,100.00
2022-10-11T08:47:47.760Z,100.00
2022-10-11T08:50:20.642Z,100.00
2022-10-11T08:52:53.353Z,100.00
2022-10-11T08:55:34.755Z,100.00
2022-10-11T08:58:02.557Z,100.00
2022-10-11T09:00:33.010Z,100.00
2022-10-11T09:03:55.128Z,100.00
2022-10-11T09:06:40.315Z,100.00
2022-10-11T09:09:20.265Z,100.00
2022-10-11T09:11:53.546Z,100.00
2022-10-11T09:15:24.414Z,100.00
2022-10-11T09:18:22.470Z,100.00
2022-10-11T09:20:59.621Z,100.00
2022-10-11T09:24:02.369Z,100.00
2022-10-11T09:26:38.531Z,100.00
2022-10-11T09:29:08.730Z,100.00
2022-10-11T09:31:37.304Z,100.00
2022-10-11T09:34:13.531Z,100.00
2022-10-11T09:36:54.325Z,100.00
2022-10-11T09:39:35.521Z,100.00
2022-10-11T09:42:11.568Z,100.00
2022-10-11T09:44:50.143Z,100.00
2022-10-11T09:47:25.099Z,100.00
2022-10-11T09:49:57.927Z,100.00
2022-10-11T09:52:26.403Z,100.00
2022-10-11T09:55:00.615Z,100.00
2022-10-11T09:57:33.444Z,100.00
2022-10-11T10:00:03.804Z,100.00
2022-10-11T10:02:56.283Z,100.00
2022-10-11T10:05:26.201Z,100.00
2022-10-11T10:08:09.120Z,100.00
2022-10-11T10:10:42.817Z,100.00
2022-10-11T10:13:21.822Z,100.00
2022-10-11T10:15:56.401Z,100.00
2022-10-11T10:18:39.390Z,100.00
2022-10-11T10:21:13.349Z,100.00
2022-10-11T10:23:43.496Z,100.00
2022-10-11T10:26:17.074Z,100.00
2022-10-11T10:29:10.627Z,100.00
2022-10-11T10:32:01.994Z,100.00
2022-10-11T10:34:35.569Z,100.00
2022-10-11T10:37:25.532Z,100.00
2022-10-11T10:40:19.036Z,100.00
2022-10-11T10:42:46.928Z,100.00
2022-10-11T10:45:21.210Z,100.00
2022-10-11T10:48:16.509Z,100.00
2022-10-11T10:50:56.095Z,100.00
2022-10-11T10:53:34.699Z,100.00
2022-10-11T10:56:12.421Z,100.00
2022-10-11T10:59:00.019Z,100.00
2022-10-11T11:01:30.542Z,100.00
2022-10-11T11:04:21.834Z,100.00
2022-10-11T11:06:58.207Z,100.00
2022-10-11T11:09:28.589Z,100.00
2022-10-11T11:12:08.423Z,100.00
2022-10-11T11:14:44.461Z,100.00
2022-10-11T11:17:45.936Z,100.00
2022-10-11T11:20:28.556Z,100.00
2022-10-11T11:22:58.761Z,100.00
2022-10-11T11:25:53.356Z,100.00
2022-10-11T11:28:40.460Z,100.00
2022-10-11T11:31:36.700Z,100.00
2022-10-11T11:34:29.303Z,100.00
2022-10-11T11:37:01.796Z,100.00
2022-10-11T11:39:49.009Z,100.00
2022-10-11T11:42:28.937Z,100.00
2022-10-11T11:45:02.431Z,100.00
2022-10-11T11:47:55.449Z,100.00
2022-10-11T11:50:27.937Z,100.00
2022-10-11T11:53:12.244Z,100.00
2022-10-11T11:55:51.824Z,100.00
2022-10-11T11:58:34.196Z,100.00
2022-10-11T12:01:13.382Z,100.00
2022-10-11T12:03:46.395Z,100.00
2022-10-11T12:06:14.013Z,100.00
2022-10-11T12:08:46.289Z,100.00
2022-10-11T12:11:26.002Z,100.00
2022-10-11T12:13:54.791Z,100.00
2022-10-11T12:16:22.977Z,100.00
2022-10-11T12:18:56.049Z,95.84
2022-10-11T12:21:37.785Z,96.60
2022-10-11T12:24:11.049Z,95.83
2022-10-11T12:26:46.858Z,98.45
2022-10-11T12:29:17.416Z,98.20
2022-10-11T12:32:05.626Z,93.58
2022-10-11T12:37:17.698Z,88.30
2022-10-11T12:39:56.269Z,84.61
2022-10-11T12:42:35.458Z,88.56
2022-10-11T12:45:12.729Z,91.64
2022-10-11T12:47:51.997Z,86.07
2022-10-11T12:50:38.013Z,81.40
2022-10-11T12:54:07.989Z,87.05
2022-10-11T12:56:44.224Z,80.01
2022-10-11T12:59:23.824Z,76.21
2022-10-11T13:01:56.579Z,78.09
2022-10-11T13:04:33.273Z,77.88
2022-10-11T13:07:11.676Z,80.89
2022-10-11T13:09:41.589Z,78.64
2022-10-11T13:12:15.304Z,76.10
2022-10-11T13:14:45.545Z,75.20
2022-10-11T13:17:19.470Z,72.02
2022-10-11T13:19:58.688Z,68.08
2022-10-11T13:22:27.029Z,69.44
2022-10-11T13:25:00.137Z,69.29
2022-10-11T13:27:27.775Z,67.81
2022-10-11T13:30:00.042Z,66.97
2022-10-11T13:32:30.254Z,56.89
2022-10-11T13:35:01.928Z,41.40
2022-10-11T13:37:31.463Z,39.29
2022-10-11T13:39:59.427Z,37.04
2022-10-11T13:42:32.512Z,33.02
2022-10-11T13:45:00.717Z,28.08
2022-10-11T13:47:30.699Z,26.77
2022-10-11T13:50:31.641Z,24.11
2022-10-11T13:53:09.528Z,23.97
2022-10-11T13:55:50.155Z,21.99
2022-10-11T13:58:27.112Z,22.12
2022-10-11T14:01:24.738Z,21.82
2022-10-11T14:04:04.110Z,21.15
2022-10-11T14:06:49.797Z,21.86
2022-10-11T14:09:39.559Z,20.68
2022-10-11T14:12:30.871Z,21.96
2022-10-11T14:15:04.100Z,21.99
2022-10-11T14:17:42.265Z,20.88
2022-10-11T14:20:17.322Z,23.42
2022-10-11T14:22:45.226Z,21.96
2022-10-11T14:25:12.729Z,21.29
2022-10-11T14:27:42.514Z,20.76
2022-10-11T14:30:25.755Z,21.80
2022-10-11T14:32:58.636Z,19.75
2022-10-11T14:35:31.790Z,22.49
2022-10-11T14:37:59.435Z,22.31
2022-10-11T14:40:30.234Z,24.17
2022-10-11T14:42:57.805Z,22.88
2022-10-11T14:45:25.778Z,25.02
2022-10-11T14:47:53.564Z,22.60
2022-10-11T14:50:34.094Z,23.49
2022-10-11T14:53:01.469Z,25.15
2022-10-11T14:55:30.329Z,24.86
2022-10-11T14:57:58.161Z,24.71
2022-10-11T15:00:28.501Z,28.29
2022-10-11T15:02:56.240Z,29.30
2022-10-11T15:05:28.687Z,31.74
2022-10-11T15:07:59.040Z,35.26
2022-10-11T15:10:38.558Z,36.85
2022-10-11T15:13:07.292Z,39.35
2022-10-11T15:15:37.000Z,36.49
2022-10-11T15:18:06.399Z,33.58
2022-10-11T15:20:38.191Z,31.90
2022-10-11T15:23:07.805Z,29.35
2022-10-11T15:25:37.734Z,27.68
2022-10-11T15:28:06.617Z,29.59
2022-10-11T15:30:41.044Z,31.13
2022-10-11T15:33:09.377Z,31.10
2022-10-11T15:35:36.824Z,30.77
2022-10-11T15:38:04.489Z,30.41
2022-10-11T15:40:37.068Z,34.02
2022-10-11T15:43:04.699Z,36.94
2022-10-11T15:45:31.972Z,34.54
2022-10-11T15:47:59.321Z,34.93
2022-10-11T15:50:37.366Z,37.87
2022-10-11T15:53:07.484Z,41.08
2022-10-11T15:55:38.492Z,42.30
2022-10-11T15:58:07.185Z,44.47
2022-10-11T16:00:34.422Z,46.75
2022-10-11T16:03:01.628Z,48.93
2022-10-11T16:05:30.360Z,51.11
2022-10-11T16:07:57.587Z,51.75
2022-10-11T16:10:24.829Z,55.00
2022-10-11T16:12:52.118Z,57.15
2022-10-11T16:15:19.305Z,59.43
2022-10-11T16:17:47.049Z,61.21
2022-10-11T16:20:15.336Z,63.18
2022-10-11T16:22:43.082Z,69.35
2022-10-11T16:25:10.607Z,69.38
2022-10-11T16:27:37.929Z,71.91
2022-10-11T16:30:06.292Z,74.82
2022-10-11T16:32:34.167Z,79.96
2022-10-11T16:35:01.498Z,81.79
2022-10-11T16:37:31.864Z,84.16
2022-10-11T16:39:59.468Z,84.69
2022-10-11T16:42:27.387Z,88.09
2022-10-11T16:44:54.620Z,94.42
2022-10-11T16:47:21.872Z,97.71
2022-10-11T16:49:49.499Z,97.03
2022-10-11T16:52:17.373Z,99.47
2022-10-11T16:54:46.666Z,100.00
2022-10-11T16:57:16.836Z,100.00
2022-10-11T16:59:44.751Z,100.00
2022-10-11T17:02:21.708Z,100.00
2022-10-11T17:04:51.373Z,100.00
2022-10-11T17:07:19.506Z,100.00
2022-10-11T17:09:48.600Z,100.00
2022-10-11T17:12:18.590Z,100.00
2022-10-11T17:14:46.882Z,100.00
2022-10-11T17:17:14.618Z,100.00
2022-10-11T17:19:45.325Z,100.00
2022-10-11T17:22:18.397Z,100.00
2022-10-11T17:24:45.923Z,100.00
2022-10-11T17:27:13.551Z,100.00
2022-10-11T17:29:40.935Z,100.00
2022-10-11T17:32:08.330Z,100.00
2022-10-11T17:34:36.044Z,100.00
2022-10-11T17:37:04.173Z,100.00
2022-10-11T17:39:32.044Z,100.00
2022-10-11T17:42:04.905Z,100.00
2022-10-11T17:44:32.195Z,100.00
2022-10-11T17:47:00.300Z,100.00
2022-10-11T17:49:27.596Z,100.00
2022-10-11T17:51:56.558Z,100.00
2022-10-11T17:54:24.435Z,100.00
2022-10-11T17:56:51.755Z,100.00
2022-10-11T17:59:27.284Z,100.00
2022-10-11T18:01:54.884Z,100.00
2022-10-11T18:04:26.671Z,100.00
2022-10-11T18:06:54.204Z,100.00
2022-10-11T18:09:22.561Z,100.00
2022-10-11T18:11:50.775Z,100.00
2022-10-11T18:14:18.416Z,100.00
2022-10-11T18:16:45.905Z,100.00
2022-10-11T18:19:14.415Z,100.00
2022-10-11T18:21:42.076Z,100.00
2022-10-11T18:24:15.406Z,100.00
2022-10-11T18:26:47.088Z,100.00
2022-10-11T18:29:15.981Z,100.00
2022-10-11T18:31:43.301Z,100.00
2022-10-11T18:34:12.931Z,100.00
2022-10-11T18:36:40.295Z,100.00
2022-10-11T18:39:09.598Z,100.00
2022-10-11T18:41:39.110Z,100.00
2022-10-11T18:44:08.545Z,100.00
2022-10-11T18:46:36.343Z,100.00
2022-10-11T18:49:04.277Z,100.00
2022-10-11T18:51:34.128Z,100.00
2022-10-11T18:54:01.892Z,100.00
2022-10-11T18:56:31.211Z,100.00
2022-10-11T18:58:59.272Z,100.00
2022-10-11T19:01:32.548Z,100.00
2022-10-11T19:04:01.877Z,100.00
2022-10-11T19:06:32.528Z,100.00
2022-10-11T19:09:09.227Z,100.00
2022-10-11T19:11:37.787Z,100.00
2022-10-11T19:14:08.287Z,100.00
2022-10-11T19:16:38.604Z,100.00
2022-10-11T19:19:06.883Z,100.00
2022-10-11T19:21:34.150Z,100.00
2022-10-11T19:24:01.841Z,100.00
2022-10-11T19:26:33.530Z,100.00
2022-10-11T19:29:04.875Z,100.00
2022-10-11T19:31:34.053Z,100.00
2022-10-11T19:34:02.375Z,100.00
2022-10-11T19:36:34.019Z,100.00
2022-10-11T19:39:05.595Z,100.00
2022-10-11T19:41:33.312Z,100.00
2022-10-11T19:44:03.646Z,100.00
2022-10-11T19:49:21.403Z,100.00
2022-10-11T19:51:49.317Z,100.00
2022-10-11T19:54:17.503Z,100.00
2022-10-11T19:56:44.983Z,100.00
2022-10-11T19:59:14.585Z,100.00
2022-10-11T20:01:43.305Z,100.00
2022-10-11T20:04:27.792Z,100.00
2022-10-11T20:07:00.406Z,100.00
2022-10-11T20:09:30.014Z,100.00
2022-10-11T20:11:58.294Z,100.00
2022-10-11T20:14:27.041Z,100.00
2022-10-11T20:16:54.388Z,100.00
2022-10-11T20:19:27.745Z,100.00
2022-10-11T20:21:58.244Z,100.00
2022-10-11T20:24:27.406Z,100.00
2022-10-11T20:26:55.219Z,100.00
2022-10-11T20:29:25.213Z,100.00
2022-10-11T20:31:52.601Z,100.00
2022-10-11T20:34:19.913Z,100.00
2022-10-11T20:36:49.224Z,100.00
2022-10-11T20:39:18.187Z,100.00
2022-10-11T20:41:45.545Z,100.00
2022-10-11T20:44:15.763Z,100.00
2022-10-11T20:46:43.490Z,100.00
2022-10-11T20:49:11.847Z,100.00
2022-10-11T20:51:41.659Z,100.00
2022-10-11T20:54:10.688Z,100.00
2022-10-11T20:56:38.606Z,100.00
2022-10-11T20:59:07.492Z,100.00
2022-10-11T21:01:37.700Z,100.00
2022-10-11T21:04:06.169Z,100.00
2022-10-11T21:06:34.319Z,100.00
2022-10-11T21:09:01.750Z,100.00
2022-10-11T21:11:33.552Z,100.00
2022-10-11T21:14:03.843Z,100.00
2022-10-11T21:16:32.756Z,100.00
2022-10-11T21:19:01.152Z,100.00
2022-10-11T21:21:29.688Z,100.00
2022-10-11T21:24:00.371Z,100.00
2022-10-11T21:26:28.593Z,100.00
2022-10-11T21:28:56.058Z,100.00
2022-10-11T21:31:23.975Z,100.00
2022-10-11T21:33:51.563Z,100.00
2022-10-11T21:36:21.088Z,100.00
2022-10-11T21:38:49.751Z,100.00
2022-10-11T21:41:22.104Z,100.00
2022-10-11T21:43:49.764Z,100.00
2022-10-11T21:46:19.131Z,100.00
2022-10-11T21:48:47.310Z,100.00
2022-10-11T21:51:17.376Z,100.00
2022-10-11T21:53:45.052Z,100.00
2022-10-11T21:56:12.758Z,100.00
2022-10-11T21:58:40.648Z,100.00
2022-10-11T22:01:10.191Z,100.00
2022-10-11T22:03:37.948Z,100.00
2022-10-11T22:06:06.122Z,100.00
2022-10-11T22:08:34.137Z,100.00
2022-10-11T22:11:01.937Z,100.00
2022-10-11T22:13:32.230Z,100.00
2022-10-11T22:16:10.919Z,100.00
2022-10-11T22:18:39.046Z,100.00
2022-10-11T22:21:12.492Z,100.00
2022-10-11T22:23:41.069Z,100.00
